This is the latest recevied weather packets stored in our database for station/object K9RCP-20. If no packets are shown the sender has not sent any weather packets the latest 10 day(s).
| Time | Temp. | Humidity | Pressure | Rain* | Wind** | Luminosity | Snow |
|---|---|---|---|---|---|---|---|
| 1778191517 | 21.67° C | 40% | 1015.6 hPa | 0 mm | - | 618 W/m² | - |
| 1778191215 | 21.67° C | 42% | 1015.4 hPa | 0 mm | - | 530 W/m² | - |
| 1778190911 | 21.67° C | 40% | 1015.5 hPa | 0 mm | - | 594 W/m² | - |
| 1778190609 | 20.56° C | 41% | 1015.6 hPa | 0 mm | - | 713 W/m² | - |
| 1778190306 | 20.56° C | 42% | 1015.5 hPa | 0 mm | - | 679 W/m² | - |
| 1778190001 | 21.67° C | 40% | 1015.7 hPa | 0 mm | - | 613 W/m² | - |
| 1778189698 | 20° C | 40% | 1015.8 hPa | 0 mm | - | 630 W/m² | - |
| 1778189395 | 21.67° C | 40% | 1015.6 hPa | 0 mm | - | 456 W/m² | - |
| 1778189091 | 20.56° C | 41% | 1015.8 hPa | 0 mm | - | 524 W/m² | - |
| 1778188788 | 20° C | 44% | 1015.8 hPa | 0 mm | - | 584 W/m² | - |
| 1778188484 | 20° C | 43% | 1015.8 hPa | 0 mm | - | 570 W/m² | - |
| 1778188181 | 20° C | 42% | 1016 hPa | 0 mm | - | 247 W/m² | - |
| 1778187878 | 20° C | 41% | 1016.1 hPa | 0 mm | - | 467 W/m² | - |
| 1778187575 | 20° C | 41% | 1016.2 hPa | 0 mm | - | 628 W/m² | - |
| 1778187272 | 20° C | 42% | 1016.2 hPa | 0 mm | - | 744 W/m² | - |
| 1778186968 | 20.56° C | 42% | 1016.3 hPa | 0 mm | - | 745 W/m² | - |
| 1778186664 | 21.11° C | 44% | 1016.3 hPa | 0 mm | - | 602 W/m² | - |
| 1778186362 | 20° C | 47% | 1016.5 hPa | 0 mm | - | 723 W/m² | - |
| 1778186060 | 17.78° C | 50% | 1016.5 hPa | 0 mm | - | 751 W/m² | - |
| 1778185756 | 18.89° C | 49% | 1016.4 hPa | 0 mm | - | 393 W/m² | - |
| 1778185453 | 19.44° C | 48% | 1016.4 hPa | 0 mm | - | 772 W/m² | - |
| 1778185148 | 18.89° C | 48% | 1016.5 hPa | 0 mm | - | 626 W/m² | - |
| 1778184844 | 18.89° C | 49% | 1017 hPa | 0 mm | - | 753 W/m² | - |
| 1778184541 | 19.44° C | 49% | 1016.9 hPa | 0 mm | - | 740 W/m² | - |
| 1778184236 | 19.44° C | 48% | 1016.7 hPa | 0 mm | - | 729 W/m² | - |
* Rain latest hour (hover to see other rain measurements)
** Current wind speed in m/s (hover to see current wind gust speed)